Lunamar — 5BNV2 — position and weather

sailwx.info

Track history (hours):
 
Tides and Currents Weather Stations Pressure Air Temp Water Temp Dewpoint Dewpoint Depression Visibility Wind Speed Wind Dir Waves Ship Positions

Lunamar

Last reported at 2014-Dec-13 16:33 UTC. Time now 2014-Dec-20 12:17 UTC.
Position N 50°36' E 000°22'.

Length 90 m; draft 4.1 m.

Type: Cargo ship. MMSI: 212762000.

Date/timePositionNaut miles runAvg speedWind from/ knotsBaromVisibWave heightAir tempDewpointWater temp
2014-Dec-13 16:33N 50°36' E 000°22'1111.1
2014-Dec-13 15:33N 50°40' E 000°38'1110.7
2014-Dec-13 14:33N 50°47' E 000°52'2211.0
2014-Dec-13 12:33N 51°00' E 001°20'1313.3
2014-Dec-13 11:33N 51°09' E 001°36'1313.1
2014-Dec-13 10:33N 51°18' E 001°50'1212.0
2014-Dec-13 09:33N 51°28' E 002°01'1111.0
2014-Dec-13 08:33N 51°37' E 002°12'147 8.1
2014-Dec-12 14:26N 53°30' E 004°46'6 6.6
2014-Dec-12 13:33N 53°32' E 004°55'7 6.3
2014-Dec-12 12:30N 53°34' E 005°05'5 5.0
2014-Dec-12 11:32N 53°36' E 005°13'4 3.9
2014-Dec-12 10:32N 53°37' E 005°19'3 3.4
2014-Dec-12 09:33N 53°38' E 005°25'4 3.7
2014-Dec-12 08:33N 53°40' E 005°31'6 5.8
2014-Dec-12 07:33N 53°42' E 005°40'8 7.6
2014-Dec-12 06:33N 53°44' E 005°52'59 7.4
2014-Dec-11 22:33N 53°60' E 007°29'6 5.6
2014-Dec-11 21:33N 54°01' E 007°39'6 5.7
2014-Dec-11 20:33N 54°02' E 007°48'7 6.6
2014-Dec-11 19:33N 54°01' E 007°59'8 6.8
2014-Dec-11 18:25N 54°01' E 008°12'7 7.9
2014-Dec-11 17:33N 53°60' E 008°24'10 9.8
2014-Dec-11 16:33N 53°56' E 008°40'9 9.3
2014-Dec-11 15:34N 53°51' E 008°52'8 7.9
2014-Dec-11 14:33N 53°53' E 009°05'3 2.9
2014-Dec-11 13:33N 53°54' E 009°09'0 0.0
2014-Dec-11 12:33N 53°54' E 009°09'0 0.5
2014-Dec-11 11:32N 53°54' E 009°09'0 0.0
2014-Dec-11 10:32N 53°54' E 009°09'0 0.0
2014-Dec-11 09:32N 53°54' E 009°09'0 0.0
2014-Dec-11 08:32N 53°54' E 009°09'0 0.0
2014-Dec-11 07:32N 53°54' E 009°09'0 0.0
2014-Dec-11 06:32N 53°54' E 009°09'0 0.0
2014-Dec-11 05:32N 53°54' E 009°09'0 0.0
2014-Dec-11 04:32N 53°54' E 009°09'0 0.0
2014-Dec-11 03:32N 53°54' E 009°09'0 0.0
2014-Dec-11 02:32N 53°54' E 009°09'0 0.0
2014-Dec-11 01:32N 53°54' E 009°09'0 0.0
2014-Dec-11 00:32N 53°54' E 009°09'0 0.0
2014-Dec-10 23:32N 53°54' E 009°09'0 0.0
2014-Dec-10 22:32N 53°54' E 009°09'0 0.0
2014-Dec-10 21:32N 53°54' E 009°09'0 0.0
2014-Dec-10 20:32N 53°54' E 009°09'0 0.0
2014-Dec-10 19:32N 53°54' E 009°09'0 0.0
2014-Dec-10 18:32N 53°54' E 009°09'0 0.0
2014-Dec-10 17:29N 53°54' E 009°09'0 0.0
2014-Dec-10 16:29N 53°54' E 009°09'0 0.0
2014-Dec-10 15:14N 53°54' E 009°09'0 0.0
2014-Dec-10 14:32N 53°54' E 009°09'0 0.0
2014-Dec-10 13:32N 53°54' E 009°09'0 0.0
2014-Dec-10 12:32N 53°54' E 009°09'0 0.0
2014-Dec-10 11:26N 53°54' E 009°09'0 0.0
2014-Dec-10 10:32N 53°54' E 009°09'1 0.9
2014-Dec-10 09:33N 53°55' E 009°11'21 7.1
2014-Dec-10 06:33N 54°12' E 009°32'7 6.4
2014-Dec-10 05:30N 54°17' E 009°39'7 7.4
2014-Dec-10 04:33N 54°22' E 009°48'6 5.6
2014-Dec-10 03:33N 54°21' E 009°58'6 6.0
2014-Dec-10 02:33N 54°22' E 010°07'0 0.1
2014-Dec-10 01:22N 54°22' E 010°08'0 0.0
2014-Dec-10 00:33N 54°22' E 010°08'1 0.6
2014-Dec-09 23:33N 54°22' E 010°09'1 1.2
2014-Dec-09 22:28N 54°23' E 010°10'0 0.0
2014-Dec-09 21:22N 54°23' E 010°10'0 0.0
2014-Dec-09 20:28N 54°23' E 010°10'0 0.0
2014-Dec-09 19:28N 54°23' E 010°10'0 0.0
2014-Dec-09 18:28N 54°23' E 010°10'0 0.1
2014-Dec-09 17:33N 54°23' E 010°11'7 6.6
2014-Dec-09 16:33N 54°29' E 010°16'9 9.3
2014-Dec-09 15:33N 54°33' E 010°30'38 9.5
2014-Dec-09 11:34N 54°30' E 011°35'1010.1
2014-Dec-09 10:33N 54°27' E 011°51'8010.0
2014-Dec-09 02:33N 55°03' E 013°55'1010.3
2014-Dec-09 01:33N 55°09' E 014°10'1110.8
2014-Dec-09 00:33N 55°17' E 014°22'1110.9
2014-Dec-08 23:33N 55°26' E 014°34'1010.5
2014-Dec-08 22:33N 55°31' E 014°50'1110.7
2014-Dec-08 21:33N 55°36' E 015°06'12210.2
2014-Dec-08 09:33N 57°10' E 017°28'1010.4
2014-Dec-08 08:33N 57°19' E 017°35'  
Track history (hours):
 
Tides and Currents Weather Stations Pressure Air Temp Water Temp Dewpoint Dewpoint Depression Visibility Wind Speed Wind Dir Waves Ship Positions

Lunamar

Last reported at 2014-Dec-13 16:33 UTC. Time now 2014-Dec-20 12:17 UTC.
Position N 50°36' E 000°22'.

Length 90 m; draft 4.1 m.

Type: Cargo ship. MMSI: 212762000.

Date/timePositionNaut miles runAvg speedWind from/ knotsBaromVisibWave heightAir tempDewpointWater temp
2014-Dec-13 16:33N 50°36' E 000°22'1111.1
2014-Dec-13 15:33N 50°40' E 000°38'1110.7
2014-Dec-13 14:33N 50°47' E 000°52'2211.0
2014-Dec-13 12:33N 51°00' E 001°20'1313.3
2014-Dec-13 11:33N 51°09' E 001°36'1313.1
2014-Dec-13 10:33N 51°18' E 001°50'1212.0
2014-Dec-13 09:33N 51°28' E 002°01'1111.0
2014-Dec-13 08:33N 51°37' E 002°12'147 8.1
2014-Dec-12 14:26N 53°30' E 004°46'6 6.6
2014-Dec-12 13:33N 53°32' E 004°55'7 6.3
2014-Dec-12 12:30N 53°34' E 005°05'5 5.0
2014-Dec-12 11:32N 53°36' E 005°13'4 3.9
2014-Dec-12 10:32N 53°37' E 005°19'3 3.4
2014-Dec-12 09:33N 53°38' E 005°25'4 3.7
2014-Dec-12 08:33N 53°40' E 005°31'6 5.8
2014-Dec-12 07:33N 53°42' E 005°40'8 7.6
2014-Dec-12 06:33N 53°44' E 005°52'59 7.4
2014-Dec-11 22:33N 53°60' E 007°29'6 5.6
2014-Dec-11 21:33N 54°01' E 007°39'6 5.7
2014-Dec-11 20:33N 54°02' E 007°48'7 6.6
2014-Dec-11 19:33N 54°01' E 007°59'8 6.8
2014-Dec-11 18:25N 54°01' E 008°12'7 7.9
2014-Dec-11 17:33N 53°60' E 008°24'10 9.8
2014-Dec-11 16:33N 53°56' E 008°40'9 9.3
2014-Dec-11 15:34N 53°51' E 008°52'8 7.9
2014-Dec-11 14:33N 53°53' E 009°05'3 2.9
2014-Dec-11 13:33N 53°54' E 009°09'0 0.0
2014-Dec-11 12:33N 53°54' E 009°09'0 0.5
2014-Dec-11 11:32N 53°54' E 009°09'0 0.0
2014-Dec-11 10:32N 53°54' E 009°09'0 0.0
2014-Dec-11 09:32N 53°54' E 009°09'0 0.0
2014-Dec-11 08:32N 53°54' E 009°09'0 0.0
2014-Dec-11 07:32N 53°54' E 009°09'0 0.0
2014-Dec-11 06:32N 53°54' E 009°09'0 0.0
2014-Dec-11 05:32N 53°54' E 009°09'0 0.0
2014-Dec-11 04:32N 53°54' E 009°09'0 0.0
2014-Dec-11 03:32N 53°54' E 009°09'0 0.0
2014-Dec-11 02:32N 53°54' E 009°09'0 0.0
2014-Dec-11 01:32N 53°54' E 009°09'0 0.0
2014-Dec-11 00:32N 53°54' E 009°09'0 0.0
2014-Dec-10 23:32N 53°54' E 009°09'0 0.0
2014-Dec-10 22:32N 53°54' E 009°09'0 0.0
2014-Dec-10 21:32N 53°54' E 009°09'0 0.0
2014-Dec-10 20:32N 53°54' E 009°09'0 0.0
2014-Dec-10 19:32N 53°54' E 009°09'0 0.0
2014-Dec-10 18:32N 53°54' E 009°09'0 0.0
2014-Dec-10 17:29N 53°54' E 009°09'0 0.0
2014-Dec-10 16:29N 53°54' E 009°09'0 0.0
2014-Dec-10 15:14N 53°54' E 009°09'0 0.0
2014-Dec-10 14:32N 53°54' E 009°09'0 0.0
2014-Dec-10 13:32N 53°54' E 009°09'0 0.0
2014-Dec-10 12:32N 53°54' E 009°09'0 0.0
2014-Dec-10 11:26N 53°54' E 009°09'0 0.0
2014-Dec-10 10:32N 53°54' E 009°09'1 0.9
2014-Dec-10 09:33N 53°55' E 009°11'21 7.1
2014-Dec-10 06:33N 54°12' E 009°32'7 6.4
2014-Dec-10 05:30N 54°17' E 009°39'7 7.4
2014-Dec-10 04:33N 54°22' E 009°48'6 5.6
2014-Dec-10 03:33N 54°21' E 009°58'6 6.0
2014-Dec-10 02:33N 54°22' E 010°07'0 0.1
2014-Dec-10 01:22N 54°22' E 010°08'0 0.0
2014-Dec-10 00:33N 54°22' E 010°08'1 0.6
2014-Dec-09 23:33N 54°22' E 010°09'1 1.2
2014-Dec-09 22:28N 54°23' E 010°10'0 0.0
2014-Dec-09 21:22N 54°23' E 010°10'0 0.0
2014-Dec-09 20:28N 54°23' E 010°10'0 0.0
2014-Dec-09 19:28N 54°23' E 010°10'0 0.0
2014-Dec-09 18:28N 54°23' E 010°10'0 0.1
2014-Dec-09 17:33N 54°23' E 010°11'7 6.6
2014-Dec-09 16:33N 54°29' E 010°16'9 9.3
2014-Dec-09 15:33N 54°33' E 010°30'38 9.5
2014-Dec-09 11:34N 54°30' E 011°35'1010.1
2014-Dec-09 10:33N 54°27' E 011°51'8010.0
2014-Dec-09 02:33N 55°03' E 013°55'1010.3
2014-Dec-09 01:33N 55°09' E 014°10'1110.8
2014-Dec-09 00:33N 55°17' E 014°22'1110.9
2014-Dec-08 23:33N 55°26' E 014°34'1010.5
2014-Dec-08 22:33N 55°31' E 014°50'1110.7
2014-Dec-08 21:33N 55°36' E 015°06'12210.2
2014-Dec-08 09:33N 57°10' E 017°28'1010.4
2014-Dec-08 08:33N 57°19' E 017°35'  

Dump ship's entire track history